Time;durP1;ratioP1;P1;durP2;ratioP2;P2;SDS_P1;SDS_P2;PMS_P1;PMS_P2;Temp;Humidity;BMP_temperature;BMP_pressure;BME280_temperature;BME280_humidity;BME280_pressure;Samples;Min_cycle;Max_cycle;Signal;HPM_P1;HPM_P2
2022/07/16 00:03:26;;;;;;;2.37;2.17;;;24.20;60.40;;;;;;6060858;23;20416;-75
2022/07/16 00:05:54;;;;;;;5.13;2.20;;;24.20;60.40;;;;;;6036848;23;20408;-75
2022/07/16 00:08:21;;;;;;;2.10;1.90;;;24.20;60.40;;;;;;6060681;23;20396;-76
2022/07/16 00:10:49;;;;;;;2.30;2.10;;;24.20;60.50;;;;;;6060630;23;20428;-75
2022/07/16 00:13:18;;;;;;;2.00;1.77;;;24.20;60.50;;;;;;6060223;23;20462;-76
2022/07/16 00:15:44;;;;;;;2.10;1.87;;;24.20;60.60;;;;;;6062191;23;20439;-76
2022/07/16 00:20:58;;;;;;;2.83;1.93;;;24.10;60.60;;;;;;6143455;23;20528;-76
2022/07/16 00:23:24;;;;;;;1.83;1.70;;;24.10;60.70;;;;;;6175892;23;20900;-76
2022/07/16 00:25:50;;;;;;;2.40;1.87;;;24.10;60.70;;;;;;6151299;23;20376;-76
2022/07/16 00:28:16;;;;;;;2.17;1.97;;;24.10;60.70;;;;;;6152980;23;20610;-76
2022/07/16 00:30:42;;;;;;;4.40;2.07;;;24.10;60.70;;;;;;6175945;23;20404;-74
2022/07/16 00:33:08;;;;;;;2.17;1.97;;;24.10;60.70;;;;;;6176349;23;20407;-76
2022/07/16 00:35:36;;;;;;;2.30;2.10;;;24.10;60.80;;;;;;6151142;23;20591;-75
2022/07/16 00:38:04;;;;;;;1.80;1.70;;;24.10;60.80;;;;;;6175135;23;20399;-75
2022/07/16 00:40:31;;;;;;;2.10;2.00;;;24.00;60.70;;;;;;6151427;23;20400;-75
2022/07/16 00:42:56;;;;;;;2.30;1.70;;;24.00;60.80;;;;;;6151656;23;20764;-75
2022/07/16 00:45:24;;;;;;;2.07;1.90;;;24.00;60.80;;;;;;6173982;23;20401;-75
2022/07/16 00:47:55;;;;;;;4.40;1.60;;;24.00;60.90;;;;;;6125756;23;20423;-75
2022/07/16 00:50:24;;;;;;;2.00;1.80;;;24.00;60.90;;;;;;6175919;23;20416;-75
2022/07/16 00:52:50;;;;;;;1.80;1.70;;;24.00;61.00;;;;;;6126853;23;20487;-76
2022/07/16 00:55:21;;;;;;;2.20;2.00;;;24.00;61.00;;;;;;6151410;23;20479;-76
2022/07/16 00:57:47;;;;;;;2.30;1.90;;;23.90;61.00;;;;;;6175827;23;20389;-76
2022/07/16 01:00:15;;;;;;;2.00;1.90;;;23.90;61.00;;;;;;6150588;23;20401;-76
2022/07/16 01:02:41;;;;;;;2.20;1.50;;;23.90;61.10;;;;;;6151403;23;20780;-76
2022/07/16 01:05:10;;;;;;;2.23;1.73;;;23.90;61.20;;;;;;6176028;23;20409;-76
2022/07/16 01:07:40;;;;;;;2.30;2.07;;;23.90;61.20;;;;;;6151158;23;20381;-75
2022/07/16 01:10:07;;;;;;;4.00;2.10;;;23.90;61.30;;;;;;6151007;23;20432;-75
2022/07/16 01:12:33;;;;;;;3.80;1.80;;;23.90;61.40;;;;;;6126231;23;20421;-75
2022/07/16 01:15:00;;;;;;;2.33;1.90;;;23.90;61.50;;;;;;6152342;23;20365;-76
2022/07/16 01:17:27;;;;;;;3.73;1.90;;;23.80;61.50;;;;;;6126475;23;20455;-76
2022/07/16 01:19:55;;;;;;;1.90;1.80;;;23.80;61.50;;;;;;6175544;23;20800;-76
2022/07/16 01:22:25;;;;;;;2.60;2.33;;;23.80;61.60;;;;;;6151164;23;20821;-75
2022/07/16 01:24:52;;;;;;;2.13;1.70;;;23.80;61.70;;;;;;6149910;23;20452;-76
2022/07/16 01:27:21;;;;;;;1.80;1.70;;;23.80;61.70;;;;;;6150193;23;20396;-75
2022/07/16 01:29:47;;;;;;;3.70;2.40;;;23.80;61.80;;;;;;6126372;23;20491;-75
2022/07/16 01:32:13;;;;;;;2.67;1.97;;;23.80;61.80;;;;;;6152631;23;20444;-76
2022/07/16 01:34:41;;;;;;;2.10;1.90;;;23.80;61.80;;;;;;6152502;23;20373;-76
2022/07/16 01:37:09;;;;;;;3.10;1.90;;;23.70;61.80;;;;;;6175066;23;20444;-75
2022/07/16 01:39:38;;;;;;;4.10;1.97;;;23.70;61.80;;;;;;6152032;23;20888;-76
2022/07/16 01:42:07;;;;;;;3.57;1.90;;;23.70;61.80;;;;;;6175801;23;20401;-75
2022/07/16 01:44:35;;;;;;;1.70;1.60;;;23.70;61.80;;;;;;6150504;23;20479;-75
2022/07/16 01:47:05;;;;;;;3.20;2.37;;;23.70;61.90;;;;;;6148107;23;20887;-75
2022/07/16 01:49:33;;;;;;;2.57;2.20;;;23.70;61.90;;;;;;6175398;23;20411;-75
2022/07/16 01:52:20;;;;;;;2.33;1.67;;;23.70;61.90;;;;;;6150629;23;20461;-75
2022/07/16 01:54:53;;;;;;;1.80;1.60;;;23.70;61.90;;;;;;6131993;23;20373;-76
2022/07/16 01:57:20;;;;;;;2.73;2.00;;;23.70;61.90;;;;;;6126253;23;20431;-75
2022/07/16 01:59:51;;;;;;;4.33;2.20;;;23.60;61.90;;;;;;6125621;23;20409;-76
2022/07/16 02:02:17;;;;;;;1.80;1.70;;;23.60;61.90;;;;;;6175340;23;20389;-76
2022/07/16 02:04:43;;;;;;;2.30;1.93;;;23.70;62.00;;;;;;6125961;23;20716;-74
2022/07/16 02:07:12;;;;;;;2.00;1.80;;;23.60;62.00;;;;;;6150497;23;20384;-76
2022/07/16 02:09:40;;;;;;;2.10;1.57;;;23.60;62.00;;;;;;6126533;23;21112;-76
2022/07/16 02:12:11;;;;;;;2.43;2.13;;;23.60;62.10;;;;;;6149883;23;20406;-76
2022/07/16 02:14:37;;;;;;;2.07;1.97;;;23.60;62.10;;;;;;6175213;23;20416;-75
2022/07/16 02:17:03;;;;;;;2.30;2.00;;;23.50;62.00;;;;;;6152101;23;20436;-75
2022/07/16 02:19:32;;;;;;;3.10;2.10;;;23.50;62.10;;;;;;6174752;23;20492;-76
2022/07/16 02:22:01;;;;;;;2.73;2.20;;;23.50;62.10;;;;;;6174977;23;20401;-75
2022/07/16 02:24:28;;;;;;;2.43;2.23;;;23.50;62.10;;;;;;6150157;23;20476;-75
2022/07/16 02:26:54;;;;;;;1.90;1.80;;;23.50;62.20;;;;;;6151951;23;20389;-76
2022/07/16 02:29:22;;;;;;;2.20;2.00;;;23.50;62.20;;;;;;6150328;23;20491;-74
2022/07/16 02:31:51;;;;;;;2.53;1.80;;;23.50;62.30;;;;;;6125454;23;20416;-73
2022/07/16 02:34:21;;;;;;;2.10;1.90;;;23.50;62.40;;;;;;6150512;23;20951;-76
2022/07/16 02:36:50;;;;;;;2.40;1.97;;;23.50;62.40;;;;;;6148709;23;20436;-76
2022/07/16 02:39:18;;;;;;;2.43;2.23;;;23.40;62.30;;;;;;6150260;23;21035;-76
2022/07/16 02:41:46;;;;;;;1.97;1.77;;;23.40;62.30;;;;;;6125592;23;20415;-76
2022/07/16 02:44:15;;;;;;;3.47;2.07;;;23.40;62.40;;;;;;6174653;23;20397;-76
2022/07/16 02:46:44;;;;;;;2.20;1.87;;;23.40;62.50;;;;;;6172516;23;20899;-75
2022/07/16 02:49:10;;;;;;;2.10;1.90;;;23.40;62.60;;;;;;6147310;23;20419;-76
2022/07/16 02:51:38;;;;;;;2.87;2.17;;;23.40;62.60;;;;;;6154085;23;20408;-76
2022/07/16 02:54:04;;;;;;;2.60;2.40;;;23.40;62.70;;;;;;6152652;23;20424;-75
2022/07/16 02:56:33;;;;;;;3.40;2.10;;;23.40;62.70;;;;;;6154158;23;20791;-76
2022/07/16 02:59:01;;;;;;;2.07;1.87;;;23.40;62.80;;;;;;6153615;23;20365;-76
2022/07/16 03:01:30;;;;;;;2.27;2.07;;;23.30;62.70;;;;;;6177567;23;20438;-76
2022/07/16 03:03:56;;;;;;;2.40;2.20;;;23.30;62.70;;;;;;6152791;23;20827;-76
2022/07/16 03:06:22;;;;;;;4.10;2.40;;;23.30;62.70;;;;;;6154145;23;20412;-76
2022/07/16 03:08:48;;;;;;;2.33;2.10;;;23.30;62.80;;;;;;6177184;23;20369;-75
2022/07/16 03:11:15;;;;;;;3.80;2.23;;;23.30;62.80;;;;;;6152158;23;20397;-76
2022/07/16 03:13:41;;;;;;;2.67;2.10;;;23.30;62.90;;;;;;6177274;23;20837;-75
2022/07/16 03:16:08;;;;;;;2.83;2.13;;;23.30;62.90;;;;;;6152045;23;20483;-75
2022/07/16 03:18:36;;;;;;;2.27;2.07;;;23.30;62.90;;;;;;6103948;23;20401;-77
2022/07/16 03:21:04;;;;;;;3.17;2.10;;;23.30;63.00;;;;;;6155647;23;20923;-77
2022/07/16 03:23:32;;;;;;;3.93;2.13;;;23.30;63.00;;;;;;6179957;23;20871;-76
2022/07/16 03:25:59;;;;;;;2.47;2.27;;;23.30;63.10;;;;;;6155262;23;20467;-76
2022/07/16 03:28:24;;;;;;;3.00;2.33;;;23.20;63.00;;;;;;6179474;23;20384;-75
2022/07/16 03:30:53;;;;;;;3.37;2.33;;;23.20;63.00;;;;;;6156477;23;20442;-77
2022/07/16 03:33:22;;;;;;;2.43;2.20;;;23.20;63.10;;;;;;6154785;23;20420;-76
2022/07/16 03:35:48;;;;;;;2.20;2.00;;;23.20;63.00;;;;;;6130247;23;20437;-77
2022/07/16 03:41:08;;;;;;;2.13;1.93;;;23.20;63.10;;;;;;6180346;23;20399;-77
2022/07/16 03:43:34;;;;;;;2.20;2.00;;;23.20;63.90;;;;;;6130475;23;20388;-77
2022/07/16 03:46:02;;;;;;;2.50;2.30;;;23.20;63.10;;;;;;6155070;23;20393;-76
2022/07/16 03:48:29;;;;;;;2.57;2.37;;;23.20;63.20;;;;;;6178858;23;20165;-76
2022/07/16 03:50:57;;;;;;;2.40;2.20;;;23.10;63.10;;;;;;6154750;23;20413;-77
2022/07/16 03:53:23;;;;;;;2.33;2.13;;;23.10;63.10;;;;;;6156241;23;20711;-76
2022/07/16 03:55:51;;;;;;;3.63;2.50;;;23.10;63.10;;;;;;6179705;23;20641;-77
2022/07/16 03:58:20;;;;;;;4.53;2.50;;;23.10;63.10;;;;;;6155079;23;20369;-77
2022/07/16 04:00:51;;;;;;;2.30;2.10;;;23.10;63.10;;;;;;6179428;23;20408;-75
2022/07/16 04:03:17;;;;;;;2.90;2.57;;;23.10;63.10;;;;;;6130505;23;20491;-76
2022/07/16 04:05:42;;;;;;;2.50;2.27;;;23.10;63.10;;;;;;6156427;23;20419;-77
2022/07/16 04:08:09;;;;;;;3.83;2.53;;;23.10;63.10;;;;;;6156162;23;20376;-76
2022/07/16 04:10:37;;;;;;;2.83;2.20;;;23.10;63.10;;;;;;6155096;23;20413;-77
2022/07/16 04:13:03;;;;;;;2.30;2.10;;;23.10;63.20;;;;;;6179723;23;20411;-76
2022/07/16 04:15:32;;;;;;;2.40;1.90;;;23.10;63.20;;;;;;6179175;23;20428;-77
2022/07/16 04:18:00;;;;;;;2.83;2.10;;;23.00;63.10;;;;;;6156084;23;20372;-75
2022/07/16 04:20:26;;;;;;;2.03;1.90;;;23.00;63.10;;;;;;6130215;23;20790;-75
2022/07/16 04:22:57;;;;;;;4.03;1.90;;;23.00;63.10;;;;;;6155056;23;20833;-77
2022/07/16 04:25:25;;;;;;;3.27;2.00;;;23.00;63.20;;;;;;6129985;23;20417;-77
2022/07/16 04:27:54;;;;;;;3.30;2.30;;;23.00;63.10;;;;;;6178291;23;20372;-77
2022/07/16 04:30:20;;;;;;;2.50;2.30;;;23.00;63.20;;;;;;6154314;23;20872;-76
2022/07/16 04:32:49;;;;;;;2.70;2.30;;;23.00;63.20;;;;;;6179242;23;20366;-76
2022/07/16 04:35:17;;;;;;;2.87;2.20;;;23.00;63.20;;;;;;6129667;23;20389;-77
2022/07/16 04:37:46;;;;;;;2.40;2.20;;;23.00;63.20;;;;;;6179145;23;20377;-77
2022/07/16 04:40:15;;;;;;;2.23;1.93;;;23.00;63.30;;;;;;6154078;23;20441;-76
2022/07/16 04:42:44;;;;;;;2.53;2.33;;;23.00;63.30;;;;;;6129681;23;20386;-77
2022/07/16 04:45:12;;;;;;;2.47;2.00;;;22.90;63.10;;;;;;6129521;23;20449;-77
2022/07/16 04:47:39;;;;;;;2.23;2.00;;;23.00;63.30;;;;;;6167139;23;20388;-76
2022/07/16 04:50:08;;;;;;;2.30;2.10;;;22.90;63.20;;;;;;6154678;23;20446;-76
2022/07/16 04:52:36;;;;;;;2.10;2.00;;;22.90;63.20;;;;;;6179161;23;20520;-76
2022/07/16 04:55:04;;;;;;;4.10;2.50;;;22.90;63.20;;;;;;6130296;23;20385;-76
2022/07/16 04:57:33;;;;;;;2.50;2.20;;;22.90;63.30;;;;;;6153859;23;20413;-76
2022/07/16 05:00:01;;;;;;;3.47;2.00;;;22.90;63.30;;;;;;6155968;23;20396;-76
2022/07/16 05:05:12;;;;;;;2.93;2.30;;;22.90;63.30;;;;;;6180604;23;20755;-77
2022/07/16 05:07:42;;;;;;;3.10;2.27;;;22.90;63.40;;;;;;6180534;23;20764;-76
2022/07/16 05:10:09;;;;;;;2.87;2.23;;;22.90;63.40;;;;;;6155768;23;20401;-77
2022/07/16 05:12:34;;;;;;;4.10;2.30;;;22.90;63.30;;;;;;6155872;23;20393;-77
2022/07/16 05:15:07;;;;;;;2.90;1.93;;;22.90;63.40;;;;;;6180632;23;20440;-77
2022/07/16 05:17:33;;;;;;;2.73;2.30;;;22.80;63.30;;;;;;6180500;23;20386;-76
2022/07/16 05:20:02;;;;;;;2.07;1.87;;;22.80;63.40;;;;;;6180219;23;20816;-77
2022/07/16 05:22:31;;;;;;;2.20;2.00;;;22.80;63.40;;;;;;6180386;23;20578;-77
2022/07/16 05:24:59;;;;;;;4.23;2.50;;;22.80;63.40;;;;;;6179899;23;20385;-77
2022/07/16 05:27:28;;;;;;;3.97;2.67;;;22.80;63.40;;;;;;6130737;23;20396;-77
2022/07/16 05:29:56;;;;;;;2.37;2.00;;;22.80;63.40;;;;;;6156593;23;20393;-77
2022/07/16 05:32:22;;;;;;;2.40;2.20;;;22.80;63.30;;;;;;6180452;23;20396;-78
2022/07/16 05:34:53;;;;;;;3.43;2.10;;;22.80;63.30;;;;;;6155159;23;20435;-76
2022/07/16 05:37:22;;;;;;;3.50;2.17;;;22.80;63.40;;;;;;6155160;23;20915;-77
2022/07/16 05:39:48;;;;;;;2.53;1.90;;;22.80;63.30;;;;;;6154503;23;20508;-74
2022/07/16 05:42:18;;;;;;;2.10;1.90;;;22.80;63.30;;;;;;6154627;23;20377;-74
2022/07/16 05:44:56;;;;;;;2.27;1.90;;;22.80;63.20;;;;;;6154642;23;20368;-74
2022/07/16 05:47:25;;;;;;;2.30;1.93;;;22.80;63.40;;;;;;6155992;23;20884;-75
2022/07/16 05:49:50;;;;;;;7.40;2.30;;;22.70;63.20;;;;;;6178684;23;20505;-74
2022/07/16 05:52:20;;;;;;;3.83;2.30;;;22.70;63.20;;;;;;6154433;23;20779;-75
2022/07/16 05:54:45;;;;;;;3.60;2.00;;;22.70;63.20;;;;;;6154522;23;20372;-74
2022/07/16 05:57:11;;;;;;;2.17;1.97;;;22.70;63.20;;;;;;6178699;23;20405;-74
2022/07/16 05:59:40;;;;;;;3.30;2.03;;;22.70;63.20;;;;;;6129550;23;20401;-74
2022/07/16 06:02:08;;;;;;;2.50;2.27;;;22.70;63.10;;;;;;6128712;23;20393;-73
2022/07/16 06:04:39;;;;;;;2.47;2.20;;;22.70;63.10;;;;;;6129227;23;20365;-73
2022/07/16 06:07:05;;;;;;;2.67;2.10;;;22.70;63.10;;;;;;6154664;23;20405;-73
2022/07/16 06:09:36;;;;;;;2.47;2.07;;;22.70;63.20;;;;;;6154844;23;20385;-72
2022/07/16 06:12:04;;;;;;;2.53;2.20;;;22.70;63.20;;;;;;6154817;23;20376;-73
2022/07/16 06:14:30;;;;;;;3.47;2.17;;;22.70;63.30;;;;;;6153132;23;20428;-74
2022/07/16 06:16:56;;;;;;;2.00;1.90;;;22.70;63.30;;;;;;6149136;23;20429;-74
2022/07/16 06:19:25;;;;;;;3.67;2.67;;;22.70;63.40;;;;;;6175188;23;20184;-74
2022/07/16 06:21:51;;;;;;;2.60;2.30;;;22.70;63.40;;;;;;6152187;23;20397;-74
2022/07/16 06:24:20;;;;;;;3.70;2.77;;;22.70;63.40;;;;;;6150551;23;20717;-74
2022/07/16 06:26:48;;;;;;;2.70;2.47;;;22.70;63.50;;;;;;6150247;23;20379;-74
2022/07/16 06:29:17;;;;;;;3.80;2.87;;;22.70;63.60;;;;;;6174225;23;20411;-74
2022/07/16 06:31:44;;;;;;;2.50;2.07;;;22.70;63.70;;;;;;6174964;23;20390;-74
2022/07/16 06:34:11;;;;;;;4.50;1.93;;;22.60;63.50;;;;;;6172846;23;20393;-73
2022/07/16 06:36:38;;;;;;;2.90;2.47;;;22.60;63.50;;;;;;6139027;23;20441;-75
2022/07/16 06:39:04;;;;;;;4.50;2.53;;;22.60;63.50;;;;;;6151412;23;20385;-72
2022/07/16 06:41:30;;;;;;;2.93;2.30;;;22.70;63.80;;;;;;6150065;23;20399;-73
2022/07/16 06:43:57;;;;;;;2.40;2.20;;;22.60;63.80;;;;;;6149810;23;20373;-75
2022/07/16 06:46:23;;;;;;;2.57;2.33;;;22.60;63.90;;;;;;6150558;23;20388;-75
2022/07/16 06:48:49;;;;;;;3.10;2.23;;;22.70;64.10;;;;;;6125952;23;20416;-75
2022/07/16 06:51:17;;;;;;;6.13;3.10;;;22.60;64.20;;;;;;6125078;23;20451;-75
2022/07/16 06:53:43;;;;;;;2.40;2.17;;;22.60;64.20;;;;;;6151831;23;20397;-75
2022/07/16 06:56:09;;;;;;;3.40;2.30;;;22.60;64.40;;;;;;6149396;23;20423;-72
2022/07/16 06:58:40;;;;;;;2.87;2.40;;;22.60;64.30;;;;;;6151864;23;20381;-72
2022/07/16 07:01:08;;;;;;;3.00;2.60;;;22.60;64.50;;;;;;6149801;23;20487;-73
2022/07/16 07:03:40;;;;;;;3.07;2.60;;;22.60;64.60;;;;;;6151589;23;20408;-72
2022/07/16 07:06:07;;;;;;;4.77;2.60;;;22.70;65.10;;;;;;6150326;23;20405;-74
2022/07/16 07:08:33;;;;;;;3.70;2.67;;;22.70;65.30;;;;;;6152006;23;20376;-73
2022/07/16 07:11:00;;;;;;;2.60;2.40;;;22.60;65.50;;;;;;6151912;23;20487;-74
2022/07/16 07:13:29;;;;;;;2.73;2.50;;;22.70;65.40;;;;;;6151783;23;20389;-73
2022/07/16 07:16:00;;;;;;;4.30;2.60;;;22.60;66.10;;;;;;6174281;23;20860;-72
2022/07/16 07:18:27;;;;;;;5.57;2.33;;;22.60;65.40;;;;;;6125293;23;20384;-72
2022/07/16 07:20:52;;;;;;;3.50;2.40;;;22.60;65.60;;;;;;6175110;23;20463;-72
2022/07/16 07:23:18;;;;;;;2.47;2.10;;;22.60;65.40;;;;;;6174578;23;20408;-72
2022/07/16 07:25:47;;;;;;;3.80;2.33;;;22.70;65.30;;;;;;6150021;23;20515;-72
2022/07/16 07:28:14;;;;;;;3.30;2.07;;;22.70;65.30;;;;;;6174217;23;20409;-72
2022/07/16 07:30:40;;;;;;;2.67;2.40;;;22.70;65.40;;;;;;6125053;23;20417;-73
2022/07/16 07:33:09;;;;;;;2.07;1.87;;;22.70;65.30;;;;;;6149344;23;20370;-73
2022/07/16 07:35:35;;;;;;;2.53;1.93;;;22.70;65.30;;;;;;6174628;23;20424;-73
2022/07/16 07:38:06;;;;;;;5.30;2.23;;;22.70;65.30;;;;;;6125351;23;20385;-72
2022/07/16 07:40:33;;;;;;;3.20;2.23;;;22.70;65.10;;;;;;6149751;23;20928;-73
2022/07/16 07:43:03;;;;;;;5.60;2.80;;;22.70;65.10;;;;;;6151868;23;20373;-72
2022/07/16 07:45:31;;;;;;;3.07;2.67;;;22.70;65.20;;;;;;6150064;23;20420;-73
2022/07/16 07:47:58;;;;;;;2.50;2.30;;;22.80;65.20;;;;;;6151585;23;20369;-73
2022/07/16 07:51:03;;;;;;;5.20;2.77;;;22.80;65.30;;;;;;6089110;23;20422;-72
2022/07/16 07:53:34;;;;;;;2.70;2.50;;;22.80;65.20;;;;;;6090040;23;20383;-73
2022/07/16 07:56:05;;;;;;;3.80;3.00;;;22.80;65.30;;;;;;6089810;23;20428;-72
2022/07/16 07:58:32;;;;;;;2.73;2.30;;;22.80;65.10;;;;;;6089249;23;20413;-72
2022/07/16 08:00:57;;;;;;;2.70;2.50;;;22.80;65.10;;;;;;6090186;23;20481;-72
2022/07/16 08:03:26;;;;;;;2.90;2.50;;;22.80;65.00;;;;;;6065258;23;20395;-72
2022/07/16 08:05:52;;;;;;;2.50;2.30;;;22.80;65.00;;;;;;6089942;23;20573;-73
2022/07/16 08:08:21;;;;;;;3.67;2.87;;;22.80;64.90;;;;;;6090013;23;20387;-73
2022/07/16 08:10:46;;;;;;;2.40;2.20;;;22.80;64.80;;;;;;6089518;23;20448;-73
2022/07/16 08:13:16;;;;;;;3.40;1.97;;;22.80;64.70;;;;;;6065528;23;20898;-72
2022/07/16 08:15:42;;;;;;;3.10;2.10;;;22.80;64.50;;;;;;6064595;23;20453;-72
2022/07/16 08:18:09;;;;;;;3.57;2.60;;;22.80;64.40;;;;;;6065108;23;20883;-72
2022/07/16 08:20:38;;;;;;;2.13;2.03;;;22.90;64.40;;;;;;6066348;23;20498;-73
2022/07/16 08:23:04;;;;;;;3.23;2.40;;;22.90;64.20;;;;;;6125391;23;20393;-72
2022/07/16 08:25:45;;;;;;;2.10;1.90;;;22.90;64.10;;;;;;6149557;23;20475;-72
2022/07/16 08:28:15;;;;;;;3.30;2.07;;;22.90;63.90;;;;;;6150791;23;20391;-72
2022/07/16 08:30:43;;;;;;;5.17;2.27;;;22.90;63.80;;;;;;6151439;23;20392;-72
2022/07/16 08:33:09;;;;;;;2.10;1.90;;;22.90;63.70;;;;;;6172459;23;20432;-72
2022/07/16 08:35:35;;;;;;;2.03;1.80;;;22.90;63.70;;;;;;6175519;23;20496;-73
2022/07/16 08:38:02;;;;;;;3.20;2.53;;;22.90;63.50;;;;;;6176724;23;20464;-73
2022/07/16 08:40:37;;;;;;;1.93;1.83;;;22.90;63.40;;;;;;6152180;23;20523;-73
2022/07/16 08:43:10;;;;;;;2.90;2.20;;;23.00;63.40;;;;;;6151504;23;20387;-72
2022/07/16 08:45:39;;;;;;;2.53;1.87;;;23.00;63.40;;;;;;6151514;23;20730;-73
2022/07/16 08:48:09;;;;;;;2.07;1.97;;;23.00;64.10;;;;;;6151361;23;20385;-73
2022/07/16 08:50:36;;;;;;;2.17;1.97;;;23.00;63.20;;;;;;6176421;23;20415;-73
2022/07/16 08:53:07;;;;;;;1.70;1.60;;;23.00;63.10;;;;;;6151083;23;20381;-72
2022/07/16 08:55:36;;;;;;;1.70;1.50;;;23.00;63.00;;;;;;6152795;23;20412;-73
2022/07/16 08:58:05;;;;;;;1.80;1.70;;;23.00;62.90;;;;;;6103012;23;20507;-73
2022/07/16 09:00:31;;;;;;;2.70;1.80;;;23.10;63.00;;;;;;6178543;23;20415;-73
2022/07/16 09:03:03;;;;;;;2.67;1.90;;;23.10;62.90;;;;;;6179306;23;20388;-77
2022/07/16 09:05:29;;;;;;;1.93;1.70;;;23.10;62.80;;;;;;6153823;23;20723;-72
2022/07/16 09:07:57;;;;;;;2.27;1.70;;;23.10;62.70;;;;;;6154964;23;20401;-72
2022/07/16 09:10:37;;;;;;;2.50;1.80;;;23.10;62.60;;;;;;6155395;23;20389;-74
2022/07/16 09:13:11;;;;;;;2.87;1.90;;;23.10;62.60;;;;;;6179091;23;20447;-71
2022/07/16 09:15:41;;;;;;;3.07;1.80;;;23.20;62.70;;;;;;6129317;23;20751;-73
2022/07/16 09:18:09;;;;;;;2.13;1.77;;;23.20;62.60;;;;;;6153741;23;20357;-72
2022/07/16 09:20:45;;;;;;;2.27;1.80;;;23.20;62.60;;;;;;6178371;23;20745;-72
2022/07/16 09:23:23;;;;;;;2.53;1.77;;;23.20;62.60;;;;;;6154057;23;20520;-72
2022/07/16 09:26:01;;;;;;;1.63;1.50;;;23.20;62.50;;;;;;6155939;23;20377;-73
2022/07/16 09:28:43;;;;;;;1.63;1.30;;;23.20;62.40;;;;;;6178944;23;20413;-73
2022/07/16 09:31:30;;;;;;;2.13;1.93;;;23.30;62.50;;;;;;6178864;23;20900;-72
2022/07/16 09:34:07;;;;;;;1.90;1.70;;;23.30;62.50;;;;;;6153979;23;20401;-72
2022/07/16 09:36:33;;;;;;;1.60;1.50;;;23.30;62.30;;;;;;6156435;23;20408;-73
2022/07/16 09:39:02;;;;;;;2.13;1.57;;;23.30;62.20;;;;;;6156280;23;20878;-73
2022/07/16 09:41:54;;;;;;;2.00;1.70;;;23.30;62.10;;;;;;6120728;23;20393;-72
2022/07/16 09:44:30;;;;;;;2.10;1.90;;;23.40;62.10;;;;;;6130043;23;20465;-73
2022/07/16 09:47:13;;;;;;;2.17;1.50;;;23.30;61.90;;;;;;6106135;23;20883;-73
2022/07/16 09:49:51;;;;;;;2.63;1.87;;;23.40;61.90;;;;;;6124353;23;20506;-72
2022/07/16 09:52:35;;;;;;;3.20;1.97;;;23.40;61.80;;;;;;6150015;23;20419;-72
2022/07/16 09:55:02;;;;;;;2.90;1.73;;;23.40;61.70;;;;;;6153759;23;20753;-73
2022/07/16 09:57:29;;;;;;;1.70;1.57;;;23.40;61.70;;;;;;6153345;23;20839;-72
2022/07/16 09:59:57;;;;;;;1.63;1.43;;;23.40;61.60;;;;;;6178155;23;20409;-73
2022/07/16 10:02:24;;;;;;;2.30;1.60;;;23.50;61.70;;;;;;6180315;23;20423;-73
2022/07/16 10:04:52;;;;;;;3.27;1.70;;;23.50;61.50;;;;;;6181838;23;20365;-72
2022/07/16 10:07:21;;;;;;;2.20;1.83;;;23.50;61.50;;;;;;6181472;23;20396;-73
2022/07/16 10:09:47;;;;;;;1.97;1.50;;;23.50;61.40;;;;;;6181580;23;20397;-73
2022/07/16 10:12:16;;;;;;;1.80;1.30;;;23.50;61.40;;;;;;6154963;23;20412;-74
2022/07/16 10:14:45;;;;;;;1.47;1.37;;;23.60;61.40;;;;;;6178317;23;20404;-72
2022/07/16 10:17:12;;;;;;;2.43;1.80;;;23.60;61.30;;;;;;6153500;23;20556;-73
2022/07/16 10:19:41;;;;;;;3.10;2.00;;;23.60;61.30;;;;;;6177824;23;20404;-73
2022/07/16 10:22:28;;;;;;;1.90;1.47;;;23.70;61.40;;;;;;6128868;23;20404;-73
2022/07/16 10:24:55;;;;;;;2.33;1.50;;;23.70;61.30;;;;;;6161037;23;20444;-73
2022/07/16 10:27:31;;;;;;;2.20;1.60;;;23.70;61.20;;;;;;6154546;23;20401;-72
2022/07/16 10:30:22;;;;;;;1.83;1.60;;;23.70;61.30;;;;;;6177903;23;20416;-72
2022/07/16 10:33:14;;;;;;;1.40;1.30;;;23.80;61.30;;;;;;6158768;23;20421;-73
2022/07/16 10:35:49;;;;;;;1.80;1.40;;;23.80;61.20;;;;;;6167329;23;20441;-73
2022/07/16 10:38:21;;;;;;;3.80;1.80;;;23.80;61.10;;;;;;6152611;23;20868;-73
2022/07/16 10:41:15;;;;;;;1.33;1.23;;;23.80;60.90;;;;;;6154762;23;20404;-73
2022/07/16 10:44:02;;;;;;;3.70;1.77;;;23.80;60.80;;;;;;6178783;23;20413;-74
2022/07/16 10:46:31;;;;;;;1.73;1.40;;;23.90;60.90;;;;;;6177416;23;20423;-74
2022/07/16 10:48:56;;;;;;;2.20;1.40;;;23.80;60.70;;;;;;6177355;23;20853;-73
2022/07/16 10:51:24;;;;;;;1.60;1.47;;;23.90;60.70;;;;;;6154931;23;20427;-73
2022/07/16 10:53:56;;;;;;;2.37;1.60;;;23.90;60.60;;;;;;6155079;23;20165;-72
2022/07/16 10:56:37;;;;;;;2.40;1.60;;;23.90;60.40;;;;;;6178278;23;20415;-73
2022/07/16 10:59:12;;;;;;;2.60;1.60;;;23.90;60.30;;;;;;6128751;23;20865;-72
2022/07/16 11:01:40;;;;;;;1.93;1.50;;;23.90;60.30;;;;;;6153167;23;20400;-75
2022/07/16 11:04:10;;;;;;;1.53;1.20;;;24.00;60.30;;;;;;6152889;23;20437;-74
2022/07/16 11:06:38;;;;;;;4.03;1.40;;;24.00;60.30;;;;;;6155297;23;20443;-77
2022/07/16 11:09:06;;;;;;;4.63;1.53;;;24.00;60.20;;;;;;6178480;23;20480;-77
2022/07/16 11:11:41;;;;;;;2.40;1.60;;;24.10;60.20;;;;;;6178548;23;20396;-76
2022/07/16 11:14:11;;;;;;;2.60;1.67;;;24.10;60.10;;;;;;6154989;23;20408;-76
2022/07/16 11:16:48;;;;;;;2.30;1.67;;;24.10;60.00;;;;;;6154387;23;20436;-76
2022/07/16 11:19:15;;;;;;;1.87;1.50;;;24.10;59.90;;;;;;6177548;23;20399;-76
2022/07/16 11:21:59;;;;;;;3.20;1.73;;;24.10;59.90;;;;;;6128594;23;20869;-76
2022/07/16 11:24:26;;;;;;;2.63;1.50;;;24.20;59.90;;;;;;6153724;23;20449;-74
2022/07/16 11:26:56;;;;;;;2.93;1.40;;;24.20;59.90;;;;;;6151774;23;20458;-73
2022/07/16 11:29:29;;;;;;;2.93;1.60;;;24.20;59.80;;;;;;6152195;23;20428;-71
2022/07/16 11:32:00;;;;;;;2.90;1.23;;;24.20;59.80;;;;;;6128231;23;20852;-74
2022/07/16 11:34:35;;;;;;;2.53;1.67;;;24.30;59.70;;;;;;6150484;23;20479;-76
2022/07/16 11:37:04;;;;;;;1.60;1.50;;;24.30;59.70;;;;;;6148761;23;20412;-75
2022/07/16 11:39:30;;;;;;;1.70;1.43;;;24.30;59.70;;;;;;6174482;23;20409;-75
2022/07/16 11:42:01;;;;;;;1.97;1.57;;;24.30;59.50;;;;;;6175034;23;20409;-74
2022/07/16 11:44:33;;;;;;;1.67;1.57;;;24.40;59.50;;;;;;6175564;23;20388;-71
2022/07/16 11:47:07;;;;;;;2.40;1.53;;;24.40;59.40;;;;;;6175843;23;20460;-72
2022/07/16 11:49:41;;;;;;;2.70;1.23;;;24.40;59.40;;;;;;6152415;23;20404;-72
2022/07/16 11:52:24;;;;;;;3.53;2.20;;;24.40;59.40;;;;;;6177359;23;20464;-74
2022/07/16 11:54:57;;;;;;;2.27;1.37;;;24.40;59.20;;;;;;6177308;23;20904;-74
2022/07/16 11:57:28;;;;;;;1.70;1.50;;;24.50;59.10;;;;;;6154055;23;20495;-74
2022/07/16 11:59:55;;;;;;;2.30;1.50;;;24.50;59.00;;;;;;6177090;23;20415;-74
2022/07/16 12:02:27;;;;;;;1.90;1.40;;;24.50;59.00;;;;;;6152292;23;20381;-74
2022/07/16 12:05:01;;;;;;;1.83;1.40;;;24.50;58.70;;;;;;6127872;23;20712;-74
2022/07/16 12:07:28;;;;;;;1.60;1.30;;;24.60;58.70;;;;;;6154134;23;20919;-74
2022/07/16 12:09:59;;;;;;;2.90;1.60;;;24.60;58.60;;;;;;6155553;23;20787;-74
2022/07/16 12:12:29;;;;;;;1.77;1.40;;;24.60;58.60;;;;;;6178911;23;20396;-74
2022/07/16 12:15:01;;;;;;;5.40;1.47;;;24.60;58.40;;;;;;6154138;23;20384;-74
2022/07/16 12:17:39;;;;;;;4.20;1.60;;;24.70;58.50;;;;;;6154049;23;20439;-74
2022/07/16 12:20:13;;;;;;;2.13;1.50;;;24.70;58.50;;;;;;6129833;23;20401;-74
2022/07/16 12:22:49;;;;;;;2.77;1.67;;;24.70;58.50;;;;;;6142810;23;20441;-74
2022/07/16 12:25:27;;;;;;;1.97;1.37;;;24.80;58.30;;;;;;6154320;23;20380;-74
2022/07/16 12:27:59;;;;;;;2.83;1.57;;;24.80;58.30;;;;;;6178926;23;20730;-74
2022/07/16 12:30:52;;;;;;;2.37;1.80;;;24.80;58.40;;;;;;6179003;23;20884;-74
2022/07/16 12:36:05;;;;;;;2.73;1.70;;;24.90;58.20;;;;;;6155462;23;20755;-74
2022/07/16 12:38:54;;;;;;;3.73;1.77;;;24.90;58.00;;;;;;6153828;23;20384;-74
2022/07/16 12:41:26;;;;;;;2.63;1.30;;;24.90;58.20;;;;;;6155823;23;20464;-74
2022/07/16 12:44:00;;;;;;;2.10;1.60;;;24.90;58.20;;;;;;6178824;23;20398;-74
2022/07/16 12:46:34;;;;;;;3.00;1.30;;;24.90;58.10;;;;;;6129159;23;20420;-73
2022/07/16 12:49:11;;;;;;;2.20;1.30;;;25.00;58.00;;;;;;6153832;23;20388;-74
2022/07/16 12:51:40;;;;;;;3.47;1.37;;;25.00;57.90;;;;;;6179319;23;20372;-74
2022/07/16 12:54:07;;;;;;;3.07;1.43;;;25.00;58.00;;;;;;6154186;23;20404;-74
2022/07/16 12:59:19;;;;;;;2.40;1.63;;;25.10;57.80;;;;;;6178349;23;20422;-74
2022/07/16 13:01:46;;;;;;;2.60;1.23;;;25.10;57.80;;;;;;6154245;23;20386;-75
2022/07/16 13:04:15;;;;;;;2.97;1.70;;;25.10;57.70;;;;;;6155475;23;20409;-75
2022/07/16 13:06:46;;;;;;;2.00;1.47;;;25.10;57.80;;;;;;6178519;23;20373;-75
2022/07/16 13:09:13;;;;;;;3.10;1.60;;;25.10;57.80;;;;;;6153385;23;20460;-75
2022/07/16 13:11:41;;;;;;;2.37;1.50;;;25.20;57.60;;;;;;6155383;23;20366;-75
2022/07/16 13:14:08;;;;;;;2.40;1.30;;;25.20;57.70;;;;;;6154157;23;20401;-75
2022/07/16 13:16:36;;;;;;;1.50;1.20;;;25.20;57.20;;;;;;6177756;23;20792;-75